Time;durP1;ratioP1;P1;durP2;ratioP2;P2;SDS_P1;SDS_P2;PMS_P1;PMS_P2;Temp;Humidity;BMP_temperature;BMP_pressure;BME280_temperature;BME280_humidity;BME280_pressure;Samples;Min_cycle;Max_cycle;Signal;HPM_P1;HPM_P2
2022/03/26 00:03:58;;;;;;;8.32;5.15;;;17.10;57.60;;;;;;10412372;28;20392;-59
2022/03/26 00:08:59;;;;;;;7.53;5.80;;;17.10;57.40;;;;;;10390423;28;20073;-59
2022/03/26 00:13:59;;;;;;;7.95;5.28;;;17.10;57.30;;;;;;10389356;28;20030;-59
2022/03/26 00:19:00;;;;;;;7.05;5.07;;;17.10;57.40;;;;;;10411389;28;20044;-59
2022/03/26 00:24:00;;;;;;;7.60;5.25;;;17.00;57.60;;;;;;10412076;28;20175;-59
2022/03/26 00:29:01;;;;;;;7.85;5.57;;;17.00;57.70;;;;;;10411220;28;20365;-59
2022/03/26 00:34:02;;;;;;;5.43;3.88;;;17.00;57.70;;;;;;10366182;28;20458;-59
2022/03/26 00:39:03;;;;;;;7.57;5.30;;;17.10;58.10;;;;;;10370891;28;20109;-59
2022/03/26 00:44:04;;;;;;;7.45;4.93;;;17.10;57.90;;;;;;10371224;28;20083;-58
2022/03/26 00:49:05;;;;;;;6.85;4.65;;;17.00;57.00;;;;;;10370690;28;20026;-59
2022/03/26 00:54:08;;;;;;;7.25;5.18;;;17.10;57.10;;;;;;10373032;28;20109;-59
2022/03/26 00:59:09;;;;;;;9.20;6.20;;;17.00;57.10;;;;;;10365707;28;20038;-59
2022/03/26 01:04:10;;;;;;;6.43;5.15;;;17.00;57.10;;;;;;10376625;28;20022;-59
2022/03/26 01:09:11;;;;;;;7.57;5.50;;;17.00;57.10;;;;;;10381557;28;20049;-59
2022/03/26 01:14:11;;;;;;;6.72;4.80;;;17.00;57.00;;;;;;10418571;28;20096;-59
2022/03/26 01:19:12;;;;;;;6.72;4.95;;;17.00;57.10;;;;;;10417459;28;20441;-59
2022/03/26 01:24:13;;;;;;;6.13;4.88;;;17.00;57.00;;;;;;10387285;28;20465;-59
2022/03/26 01:29:13;;;;;;;7.07;4.65;;;17.00;57.00;;;;;;10416310;28;20038;-58
2022/03/26 01:34:14;;;;;;;7.43;5.60;;;17.00;57.70;;;;;;10376972;28;20437;-59
2022/03/26 01:39:15;;;;;;;6.88;5.18;;;17.00;57.00;;;;;;10417520;28;20116;-59
2022/03/26 01:44:16;;;;;;;7.68;5.55;;;17.00;57.00;;;;;;10390636;28;20939;-59
2022/03/26 01:49:18;;;;;;;7.78;4.88;;;17.00;57.10;;;;;;10372350;28;20038;-59
2022/03/26 01:54:19;;;;;;;7.53;5.28;;;16.90;57.30;;;;;;10387105;28;20033;-59
2022/03/26 01:59:23;;;;;;;5.68;4.15;;;16.90;57.00;;;;;;10373315;28;20025;-59
2022/03/26 02:04:24;;;;;;;6.40;4.78;;;16.90;56.90;;;;;;10386317;28;20053;-59
2022/03/26 02:09:25;;;;;;;7.18;5.25;;;16.90;56.90;;;;;;10405406;28;20054;-59
2022/03/26 02:14:26;;;;;;;7.00;4.75;;;16.90;56.80;;;;;;10374733;28;20061;-59
2022/03/26 02:19:26;;;;;;;6.22;4.65;;;16.90;56.70;;;;;;10404884;28;20109;-58
2022/03/26 02:24:27;;;;;;;7.03;5.50;;;16.90;56.70;;;;;;10414942;28;20084;-59
2022/03/26 02:29:28;;;;;;;6.30;5.38;;;17.00;56.40;;;;;;10415918;28;20047;-59
2022/03/26 02:34:29;;;;;;;7.32;5.32;;;17.10;56.10;;;;;;10397459;28;20105;-59
2022/03/26 02:39:29;;;;;;;6.05;5.18;;;17.10;56.00;;;;;;10374735;28;20481;-59
2022/03/26 02:44:30;;;;;;;6.57;4.90;;;17.00;56.10;;;;;;10374188;28;20103;-59
2022/03/26 02:49:31;;;;;;;7.55;5.43;;;17.00;56.00;;;;;;10373832;28;20435;-59
2022/03/26 02:54:31;;;;;;;7.70;5.10;;;17.00;56.10;;;;;;10377180;28;20106;-59
2022/03/26 02:59:32;;;;;;;7.72;5.13;;;17.00;56.40;;;;;;10380647;28;20032;-59
2022/03/26 03:04:34;;;;;;;6.45;5.13;;;17.00;56.20;;;;;;10359160;28;20383;-59
2022/03/26 03:09:35;;;;;;;6.35;5.47;;;17.00;56.10;;;;;;10402982;28;20524;-59
2022/03/26 03:14:36;;;;;;;7.22;5.15;;;16.90;55.90;;;;;;10414033;28;20045;-59
2022/03/26 03:19:37;;;;;;;6.18;4.97;;;16.90;56.00;;;;;;10413146;28;20038;-59
2022/03/26 03:24:38;;;;;;;5.50;4.43;;;16.90;56.40;;;;;;10412361;28;20030;-59
2022/03/26 03:29:39;;;;;;;6.63;4.80;;;16.90;56.50;;;;;;10412613;28;20033;-59
2022/03/26 03:34:39;;;;;;;8.25;6.10;;;16.90;56.60;;;;;;10393879;28;20543;-60
2022/03/26 03:39:40;;;;;;;8.18;5.65;;;16.90;56.10;;;;;;10372381;28;20112;-59
2022/03/26 03:44:41;;;;;;;7.45;5.55;;;16.90;55.80;;;;;;10372393;28;20068;-60
2022/03/26 03:49:41;;;;;;;6.55;5.35;;;17.00;55.60;;;;;;10367933;28;20114;-59
2022/03/26 03:54:42;;;;;;;7.50;5.20;;;17.00;55.50;;;;;;10361596;28;20095;-59
2022/03/26 03:59:43;;;;;;;6.30;4.75;;;17.00;55.40;;;;;;10380448;28;20110;-59
2022/03/26 04:04:43;;;;;;;7.63;5.45;;;17.00;55.30;;;;;;10380941;28;20553;-59
2022/03/26 04:09:44;;;;;;;7.30;4.82;;;17.00;55.30;;;;;;10412449;28;20157;-59
2022/03/26 04:14:45;;;;;;;6.82;5.22;;;17.10;55.30;;;;;;10386496;28;20109;-59
2022/03/26 04:19:46;;;;;;;6.10;5.10;;;17.10;55.30;;;;;;10380207;28;20034;-60
2022/03/26 04:24:46;;;;;;;6.65;5.18;;;17.00;55.40;;;;;;10371248;28;20118;-59
2022/03/26 04:29:47;;;;;;;6.68;5.05;;;17.00;55.40;;;;;;10373175;28;20108;-59
2022/03/26 04:34:48;;;;;;;7.88;5.35;;;16.90;56.00;;;;;;10393599;28;20049;-59
2022/03/26 04:39:49;;;;;;;5.97;4.90;;;16.90;55.30;;;;;;10414259;28;20112;-59
2022/03/26 04:44:49;;;;;;;7.90;5.45;;;16.90;55.30;;;;;;10418864;28;20436;-60
2022/03/26 04:49:50;;;;;;;7.05;5.30;;;16.90;55.30;;;;;;10419447;28;20116;-59
2022/03/26 04:54:51;;;;;;;7.50;5.57;;;17.00;55.20;;;;;;10395612;28;20052;-59
2022/03/26 04:59:52;;;;;;;6.88;5.63;;;17.00;55.10;;;;;;10396184;28;20053;-59
2022/03/26 05:04:53;;;;;;;5.50;4.43;;;17.00;55.00;;;;;;10378647;28;20030;-60
2022/03/26 05:09:54;;;;;;;8.05;5.55;;;17.00;54.90;;;;;;10392980;28;20061;-59
2022/03/26 05:14:55;;;;;;;6.53;4.65;;;17.10;54.60;;;;;;10376222;28;20030;-59
2022/03/26 05:19:55;;;;;;;6.30;5.25;;;17.10;54.70;;;;;;10391120;28;20041;-60
2022/03/26 05:24:56;;;;;;;9.35;5.88;;;17.00;54.70;;;;;;10376993;28;20456;-60
2022/03/26 05:29:57;;;;;;;6.90;5.80;;;17.00;54.80;;;;;;10390074;28;20040;-60
2022/03/26 05:34:58;;;;;;;8.93;5.47;;;17.00;54.70;;;;;;10382516;28;20068;-60
2022/03/26 05:39:58;;;;;;;7.78;5.82;;;17.00;54.70;;;;;;10397997;28;20040;-61
2022/03/26 05:44:59;;;;;;;10.90;9.20;;;17.00;54.80;;;;;;10413240;28;20018;-59
2022/03/26 05:50:00;;;;;;;9.70;7.45;;;17.00;55.40;;;;;;10384098;28;20053;-59
2022/03/26 05:55:01;;;;;;;9.20;7.38;;;17.20;55.20;;;;;;10381104;28;20083;-60
2022/03/26 06:00:03;;;;;;;11.88;6.80;;;17.30;55.30;;;;;;10365952;28;20255;-59
2022/03/26 06:05:05;;;;;;;9.25;6.55;;;17.30;56.30;;;;;;10380100;28;20476;-59
2022/03/26 06:10:07;;;;;;;13.55;7.38;;;17.10;56.00;;;;;;10416121;28;20052;-61
2022/03/26 06:15:09;;;;;;;13.23;7.53;;;17.10;57.50;;;;;;10416137;28;20053;-59
2022/03/26 06:20:10;;;;;;;15.70;7.57;;;17.20;57.40;;;;;;10400278;28;20068;-59
2022/03/26 06:25:11;;;;;;;14.07;7.75;;;17.30;57.40;;;;;;10375003;28;20034;-60
2022/03/26 06:30:12;;;;;;;11.75;7.75;;;17.30;57.70;;;;;;10381262;28;20022;-59
2022/03/26 06:35:12;;;;;;;14.63;7.65;;;17.20;57.90;;;;;;10390391;28;20038;-59
2022/03/26 06:40:13;;;;;;;14.55;7.72;;;17.10;58.60;;;;;;10384398;28;20060;-59
2022/03/26 06:45:14;;;;;;;16.83;8.40;;;17.00;58.20;;;;;;10374479;28;20032;-60
2022/03/26 06:50:15;;;;;;;27.25;10.48;;;16.90;58.00;;;;;;10384641;28;20045;-60
2022/03/26 06:55:15;;;;;;;21.33;7.82;;;16.90;58.50;;;;;;10396938;28;20068;-61
2022/03/26 07:00:17;;;;;;;23.05;7.90;;;16.80;58.40;;;;;;10379367;28;20037;-60
2022/03/26 07:05:17;;;;;;;22.50;9.40;;;16.80;58.60;;;;;;10383075;28;20042;-60
2022/03/26 07:10:18;;;;;;;21.48;9.40;;;16.70;58.00;;;;;;10378044;28;20038;-62
2022/03/26 07:15:19;;;;;;;19.98;8.95;;;16.70;57.60;;;;;;10381359;28;20095;-62
2022/03/26 07:20:20;;;;;;;15.73;9.27;;;16.70;57.40;;;;;;10386294;28;20091;-60
2022/03/26 07:25:21;;;;;;;12.23;8.30;;;16.70;57.30;;;;;;10389470;28;20104;-61
2022/03/26 07:30:22;;;;;;;13.43;7.53;;;16.70;57.30;;;;;;10370451;28;20040;-61
2022/03/26 07:35:23;;;;;;;17.08;8.07;;;16.70;57.40;;;;;;10393375;28;20496;-61
2022/03/26 07:40:23;;;;;;;16.63;9.10;;;16.70;57.40;;;;;;10381664;28;20041;-61
2022/03/26 07:45:24;;;;;;;16.38;8.85;;;16.70;57.10;;;;;;10388699;28;20422;-61
2022/03/26 07:50:25;;;;;;;16.75;9.07;;;16.70;57.10;;;;;;10374750;28;20466;-60
2022/03/26 07:55:26;;;;;;;20.23;9.15;;;16.70;57.10;;;;;;10383826;28;20065;-61
2022/03/26 08:00:26;;;;;;;14.30;9.60;;;16.70;57.20;;;;;;10396178;28;20421;-61
2022/03/26 08:05:28;;;;;;;13.48;8.48;;;16.80;57.10;;;;;;10397609;28;20073;-61
2022/03/26 08:10:29;;;;;;;10.70;8.52;;;16.80;57.00;;;;;;10368082;28;20492;-61
2022/03/26 08:15:29;;;;;;;10.98;8.30;;;16.80;57.20;;;;;;10388888;28;20072;-61
2022/03/26 08:20:31;;;;;;;18.00;8.10;;;16.80;57.10;;;;;;10388802;28;20487;-61
2022/03/26 08:30:51;;;;;;;13.07;8.00;;;16.80;57.20;;;;;;10367086;28;20045;-60
2022/03/26 08:35:51;;;;;;;13.57;8.25;;;16.80;57.30;;;;;;10390821;28;20105;-60
2022/03/26 08:40:52;;;;;;;16.30;8.18;;;16.80;57.40;;;;;;10383032;28;20048;-60
2022/03/26 08:45:53;;;;;;;12.13;8.32;;;16.80;57.20;;;;;;10398076;28;20535;-60
2022/03/26 08:50:54;;;;;;;16.42;8.57;;;16.90;57.20;;;;;;10403289;28;20116;-62
2022/03/26 08:55:55;;;;;;;14.15;7.75;;;16.90;57.30;;;;;;10395252;28;20025;-62
2022/03/26 09:00:55;;;;;;;13.85;7.53;;;16.90;57.30;;;;;;10385180;28;20041;-62
2022/03/26 09:05:57;;;;;;;14.13;7.70;;;16.90;57.20;;;;;;10378424;28;20486;-62
2022/03/26 09:10:58;;;;;;;14.30;8.13;;;16.90;57.30;;;;;;10394546;28;20444;-62
2022/03/26 09:15:58;;;;;;;11.68;6.63;;;16.90;57.30;;;;;;10411713;28;20033;-63
2022/03/26 09:20:59;;;;;;;11.45;6.63;;;16.90;57.20;;;;;;10411234;28;20065;-62
2022/03/26 09:26:04;;;;;;;13.82;7.28;;;16.90;57.20;;;;;;10380474;28;20026;-62
2022/03/26 09:31:04;;;;;;;15.55;7.22;;;16.90;57.20;;;;;;10388889;28;20033;-61
2022/03/26 09:36:05;;;;;;;13.35;7.50;;;16.90;57.30;;;;;;10394787;28;20053;-60
2022/03/26 09:41:09;;;;;;;9.40;6.35;;;17.00;57.20;;;;;;10386045;28;20536;-61
2022/03/26 09:46:12;;;;;;;12.48;7.82;;;17.00;57.40;;;;;;10415973;28;20100;-62
2022/03/26 09:51:26;;;;;;;14.05;7.50;;;17.00;57.40;;;;;;10415371;28;20105;-61
2022/03/26 09:56:28;;;;;;;11.43;7.00;;;17.10;57.50;;;;;;10383893;28;20044;-62
2022/03/26 10:01:29;;;;;;;11.90;7.25;;;17.10;57.40;;;;;;10380052;28;20222;-62
2022/03/26 10:06:30;;;;;;;11.60;6.97;;;17.10;57.50;;;;;;10398481;28;20081;-61
2022/03/26 10:11:34;;;;;;;9.98;7.07;;;17.20;57.40;;;;;;10373223;28;20698;-61
2022/03/26 10:16:34;;;;;;;10.70;6.93;;;17.20;57.40;;;;;;10392678;28;20068;-61
2022/03/26 10:21:36;;;;;;;11.15;7.43;;;17.20;57.40;;;;;;10415090;28;20039;-62
2022/03/26 10:26:37;;;;;;;9.98;7.20;;;17.30;57.40;;;;;;10403757;28;20029;-61
2022/03/26 10:37:00;;;;;;;9.20;6.17;;;17.30;57.40;;;;;;10385440;28;20460;-60
2022/03/26 10:42:00;;;;;;;10.60;7.55;;;17.40;57.50;;;;;;10375317;28;20037;-61
2022/03/26 10:47:04;;;;;;;10.00;7.43;;;17.30;57.50;;;;;;10369876;28;20109;-60
2022/03/26 10:52:17;;;;;;;10.07;6.80;;;17.40;57.50;;;;;;10378178;28;20029;-60
2022/03/26 10:57:24;;;;;;;9.40;6.80;;;17.40;57.50;;;;;;10382469;28;20381;-60
2022/03/26 11:02:25;;;;;;;11.73;7.22;;;17.40;57.50;;;;;;10373680;28;20429;-61
2022/03/26 11:07:27;;;;;;;10.52;7.03;;;17.50;57.60;;;;;;10373334;28;20136;-60
2022/03/26 11:12:28;;;;;;;10.63;5.63;;;17.50;57.60;;;;;;10375976;28;20033;-61
2022/03/26 11:18:12;;;;;;;10.48;5.80;;;17.50;57.60;;;;;;10395541;28;20029;-61
2022/03/26 11:24:16;;;;;;;9.07;5.28;;;17.40;57.70;;;;;;10379666;28;20037;-61
2022/03/26 11:29:56;;;;;;;8.52;6.40;;;17.50;57.60;;;;;;10310124;28;20045;-61
2022/03/26 11:35:03;;;;;;;12.55;6.35;;;17.60;57.40;;;;;;10377304;28;20073;-61
2022/03/26 11:40:05;;;;;;;8.48;5.88;;;17.60;57.50;;;;;;10412614;28;20029;-62
2022/03/26 11:50:41;;;;;;;12.10;6.07;;;17.70;57.40;;;;;;10358950;28;20033;-61
2022/03/26 11:55:49;;;;;;;9.18;6.15;;;17.70;57.40;;;;;;10375887;28;20124;-59
2022/03/26 12:00:54;;;;;;;14.18;7.35;;;17.70;57.00;;;;;;10372009;28;20431;-60
2022/03/26 12:12:13;;;;;;;11.55;6.05;;;17.70;56.50;;;;;;10383995;28;20045;-59
2022/03/26 12:17:43;;;;;;;13.48;7.20;;;17.70;56.40;;;;;;10411841;28;20052;-60
2022/03/26 12:22:43;;;;;;;8.77;6.53;;;17.80;56.40;;;;;;10411576;28;20045;-61
2022/03/26 12:27:44;;;;;;;9.52;6.60;;;17.80;56.70;;;;;;10389851;28;20563;-60
2022/03/26 12:32:45;;;;;;;11.95;6.55;;;17.90;57.30;;;;;;10375644;28;20116;-59
2022/03/26 12:37:52;;;;;;;13.25;7.55;;;17.90;56.60;;;;;;10370622;28;20108;-61
2022/03/26 12:42:54;;;;;;;12.48;6.65;;;17.90;56.70;;;;;;10371068;28;20034;-60
2022/03/26 12:47:54;;;;;;;12.13;5.85;;;17.90;56.80;;;;;;10375636;28;20033;-59
2022/03/26 12:52:55;;;;;;;10.07;6.95;;;17.90;56.90;;;;;;10379158;28;20512;-59
2022/03/26 13:03:25;;;;;;;9.82;5.88;;;18.00;56.80;;;;;;10415946;28;20486;-59
2022/03/26 13:08:26;;;;;;;7.43;5.97;;;18.00;56.80;;;;;;10384750;28;20053;-60
2022/03/26 13:13:29;;;;;;;8.95;5.93;;;18.00;56.90;;;;;;10418583;28;20119;-59
2022/03/26 13:18:39;;;;;;;10.23;6.55;;;18.10;56.90;;;;;;10417614;28;20598;-59
2022/03/26 13:23:55;;;;;;;9.93;5.85;;;18.10;57.10;;;;;;10388262;28;20042;-59
2022/03/26 13:28:56;;;;;;;9.48;4.95;;;18.10;57.20;;;;;;10400802;28;20025;-60
2022/03/26 13:33:57;;;;;;;7.20;5.53;;;18.00;57.30;;;;;;10403608;28;20064;-59
2022/03/26 13:39:00;;;;;;;7.30;5.20;;;18.10;57.30;;;;;;10376910;28;20029;-60
2022/03/26 13:44:01;;;;;;;7.40;5.25;;;18.00;57.50;;;;;;10376661;28;20034;-59
2022/03/26 13:49:03;;;;;;;8.93;5.10;;;18.10;57.50;;;;;;10376355;28;20482;-60
2022/03/26 13:54:09;;;;;;;7.70;5.97;;;18.00;57.60;;;;;;10388563;28;20173;-59
2022/03/26 13:59:11;;;;;;;9.32;4.97;;;18.10;57.50;;;;;;10390075;28;20025;-59
2022/03/26 14:04:24;;;;;;;6.70;5.05;;;18.10;57.40;;;;;;10375683;28;20033;-59
2022/03/26 14:09:29;;;;;;;6.05;4.80;;;18.10;57.50;;;;;;10374575;28;20046;-59
2022/03/26 14:14:30;;;;;;;7.35;4.57;;;18.10;57.50;;;;;;10408137;28;20029;-60
2022/03/26 14:19:31;;;;;;;7.72;4.40;;;18.10;57.40;;;;;;10415060;28;20402;-59
2022/03/26 14:24:32;;;;;;;7.75;5.25;;;18.20;57.40;;;;;;10385098;28;20069;-59
2022/03/26 14:29:33;;;;;;;5.75;4.65;;;18.10;57.40;;;;;;10409661;28;20042;-59
2022/03/26 14:34:33;;;;;;;7.15;4.72;;;18.10;57.40;;;;;;10374401;28;20057;-60
2022/03/26 14:39:34;;;;;;;7.38;4.80;;;18.10;57.70;;;;;;10374145;28;20076;-60
2022/03/26 14:44:35;;;;;;;7.47;4.22;;;18.10;57.70;;;;;;10374407;28;20069;-60
2022/03/26 14:49:36;;;;;;;5.25;4.43;;;18.10;57.80;;;;;;10375447;28;20029;-59
2022/03/26 14:54:37;;;;;;;6.28;4.43;;;18.10;57.80;;;;;;10392474;28;20037;-60
2022/03/26 14:59:37;;;;;;;6.78;5.45;;;18.10;57.70;;;;;;10380344;28;20485;-59
2022/03/26 15:04:38;;;;;;;7.53;4.45;;;18.10;57.80;;;;;;10414187;28;20047;-60
2022/03/26 15:09:39;;;;;;;8.35;4.63;;;18.10;57.70;;;;;;10413255;28;20512;-60
2022/03/26 15:14:40;;;;;;;5.55;4.20;;;18.10;57.70;;;;;;10372966;28;20514;-59
2022/03/26 15:19:41;;;;;;;6.90;4.72;;;18.10;57.70;;;;;;10372900;28;20022;-59
2022/03/26 15:24:42;;;;;;;5.65;4.35;;;18.10;57.90;;;;;;10356080;28;20045;-59
2022/03/26 15:29:43;;;;;;;7.32;5.22;;;18.00;57.90;;;;;;10372730;28;20095;-59
2022/03/26 15:34:44;;;;;;;5.68;4.63;;;18.00;57.80;;;;;;10372501;28;20091;-59
2022/03/26 15:39:45;;;;;;;7.43;4.68;;;18.10;57.90;;;;;;10372572;28;20037;-59
2022/03/26 15:44:46;;;;;;;6.03;4.45;;;18.00;57.90;;;;;;10387876;28;20033;-59
2022/03/26 15:49:47;;;;;;;5.55;4.40;;;18.00;57.80;;;;;;10393612;28;20355;-59
2022/03/26 15:54:48;;;;;;;6.82;4.72;;;18.00;57.80;;;;;;10381892;28;20042;-60
2022/03/26 15:59:49;;;;;;;4.60;3.97;;;18.00;57.80;;;;;;10372105;28;20082;-60
2022/03/26 16:04:49;;;;;;;5.70;5.00;;;18.00;57.90;;;;;;10371806;28;20096;-59
2022/03/26 16:09:50;;;;;;;5.60;4.80;;;18.00;58.00;;;;;;10371705;28;20026;-59
2022/03/26 16:14:51;;;;;;;6.35;4.57;;;18.00;58.00;;;;;;10385861;28;20072;-59
2022/03/26 16:19:51;;;;;;;6.85;5.00;;;18.00;58.10;;;;;;10412020;28;20169;-59
2022/03/26 16:24:52;;;;;;;5.85;4.30;;;18.00;58.00;;;;;;10381364;28;20504;-59
2022/03/26 16:29:53;;;;;;;5.20;4.00;;;17.90;58.10;;;;;;10411181;28;20041;-59
2022/03/26 16:34:53;;;;;;;5.63;4.47;;;17.90;58.10;;;;;;10379172;28;20084;-59
2022/03/26 16:39:54;;;;;;;4.78;4.00;;;17.90;58.20;;;;;;10379621;28;20070;-60
2022/03/26 16:44:55;;;;;;;6.45;4.18;;;17.90;58.20;;;;;;10378701;28;20113;-60
2022/03/26 16:49:56;;;;;;;6.28;4.10;;;17.90;58.20;;;;;;10382434;28;20113;-60
2022/03/26 16:54:57;;;;;;;5.00;3.83;;;17.90;58.30;;;;;;10394453;28;20033;-59
2022/03/26 16:59:57;;;;;;;5.85;3.85;;;17.80;58.30;;;;;;10395073;28;20030;-59
2022/03/26 17:04:58;;;;;;;7.20;3.85;;;17.80;58.30;;;;;;10403605;28;20113;-60
2022/03/26 17:09:59;;;;;;;4.80;3.75;;;17.80;58.30;;;;;;10374082;28;20489;-60
2022/03/26 17:15:00;;;;;;;5.00;4.13;;;17.80;58.50;;;;;;10386898;28;20072;-60
2022/03/26 17:20:00;;;;;;;6.18;4.18;;;17.80;58.40;;;;;;10417593;28;20076;-60
2022/03/26 17:25:04;;;;;;;5.50;4.25;;;17.70;58.50;;;;;;10377343;28;20064;-59
2022/03/26 17:30:06;;;;;;;5.53;4.00;;;17.70;58.50;;;;;;10373410;28;20044;-59
2022/03/26 17:35:07;;;;;;;4.47;3.35;;;17.70;58.50;;;;;;10395201;28;20026;-59
2022/03/26 17:40:08;;;;;;;5.18;3.92;;;17.70;58.60;;;;;;10376673;28;20094;-59
2022/03/26 17:45:11;;;;;;;4.05;3.50;;;17.70;58.60;;;;;;10380383;28;20057;-59
2022/03/26 17:50:12;;;;;;;5.35;4.07;;;17.60;58.70;;;;;;10416470;28;20025;-59
2022/03/26 17:55:13;;;;;;;5.18;3.63;;;17.60;58.60;;;;;;10389742;28;20037;-59
2022/03/26 18:00:15;;;;;;;5.57;3.97;;;17.60;58.60;;;;;;10383244;28;20045;-59
2022/03/26 18:05:16;;;;;;;4.90;3.92;;;17.60;58.60;;;;;;10383065;28;20041;-59
2022/03/26 18:10:17;;;;;;;5.30;4.03;;;17.60;58.60;;;;;;10414844;28;20037;-59
2022/03/26 18:15:17;;;;;;;4.47;3.67;;;17.60;58.60;;;;;;10375431;28;20038;-60
2022/03/26 18:20:18;;;;;;;5.78;4.07;;;17.60;58.60;;;;;;10375133;28;20058;-59
2022/03/26 18:25:19;;;;;;;5.93;3.83;;;17.60;58.50;;;;;;10375529;28;20058;-60
2022/03/26 18:30:20;;;;;;;4.40;3.63;;;17.60;58.50;;;;;;10374507;28;20034;-59
2022/03/26 18:35:20;;;;;;;4.60;3.80;;;17.60;58.50;;;;;;10389208;28;20117;-59
2022/03/26 18:40:21;;;;;;;5.32;4.35;;;17.60;58.40;;;;;;10383087;28;20029;-59
2022/03/26 18:45:22;;;;;;;4.70;4.15;;;17.60;58.40;;;;;;10413227;28;20032;-59
2022/03/26 18:50:23;;;;;;;5.95;3.55;;;17.60;58.40;;;;;;10412888;28;20033;-58
2022/03/26 18:55:23;;;;;;;6.00;4.68;;;17.60;58.40;;;;;;10380124;28;20109;-59
2022/03/26 19:00:34;;;;;;;4.97;3.53;;;17.60;58.40;;;;;;10373137;28;20061;-59
2022/03/26 19:05:36;;;;;;;4.10;3.70;;;17.50;58.40;;;;;;10372478;28;20042;-59
2022/03/26 19:10:39;;;;;;;5.05;3.78;;;17.50;58.40;;;;;;10387839;28;20029;-59
2022/03/26 19:15:41;;;;;;;7.10;3.45;;;17.50;58.40;;;;;;10412030;28;20038;-59
2022/03/26 19:20:42;;;;;;;4.13;3.72;;;17.50;58.30;;;;;;10381985;28;20394;-59
2022/03/26 19:25:43;;;;;;;4.32;3.42;;;17.50;58.30;;;;;;10411271;28;20040;-58
2022/03/26 19:30:45;;;;;;;4.78;3.80;;;17.50;58.30;;;;;;10411570;28;20116;-59
2022/03/26 19:35:45;;;;;;;4.47;3.80;;;17.50;58.30;;;;;;10382674;28;20117;-59
2022/03/26 19:40:49;;;;;;;5.13;3.92;;;17.50;58.40;;;;;;10377610;28;20458;-59
2022/03/26 19:45:50;;;;;;;3.80;3.17;;;17.50;58.40;;;;;;10371127;28;20053;-59
2022/03/26 19:50:50;;;;;;;4.32;3.58;;;17.50;58.40;;;;;;10370976;28;20058;-58
2022/03/26 19:55:55;;;;;;;4.70;3.30;;;17.50;58.50;;;;;;10408430;28;20026;-59
2022/03/26 20:00:58;;;;;;;4.65;3.85;;;17.50;58.50;;;;;;10379527;28;20402;-59
2022/03/26 20:05:59;;;;;;;4.22;3.75;;;17.50;58.40;;;;;;10365275;28;20073;-59
2022/03/26 20:11:00;;;;;;;4.97;4.07;;;17.50;58.40;;;;;;10370466;28;20109;-58
2022/03/26 20:18:39;;;;;;;4.82;3.65;;;17.50;58.30;;;;;;10372138;28;20045;-59
2022/03/26 20:21:21;;;;;;;4.93;3.22;;;17.50;58.30;;;;;;10394175;28;20095;-59
2022/03/26 20:26:22;;;;;;;3.55;2.63;;;17.50;58.40;;;;;;10409707;28;20126;-59
2022/03/26 20:31:22;;;;;;;4.85;3.50;;;17.50;58.40;;;;;;10410976;28;20063;-59
2022/03/26 20:36:24;;;;;;;4.00;3.10;;;17.50;58.20;;;;;;10391060;28;20069;-59
2022/03/26 20:41:25;;;;;;;4.35;3.30;;;17.50;58.20;;;;;;10385718;28;20030;-59
2022/03/26 20:46:26;;;;;;;3.85;3.20;;;17.50;58.10;;;;;;10370446;28;20037;-59
2022/03/26 20:51:27;;;;;;;4.07;3.38;;;17.50;58.10;;;;;;10369564;28;20417;-59
2022/03/26 20:56:27;;;;;;;3.97;3.42;;;17.50;58.00;;;;;;10399628;28;20041;-59
2022/03/26 21:01:29;;;;;;;3.75;3.15;;;17.50;58.10;;;;;;10374215;28;20453;-59
2022/03/26 21:06:29;;;;;;;4.35;3.15;;;17.50;57.90;;;;;;10357343;28;20045;-58
2022/03/26 21:11:30;;;;;;;5.00;3.00;;;17.50;57.90;;;;;;10369848;28;20040;-59
2022/03/26 21:16:31;;;;;;;3.88;2.78;;;17.40;57.70;;;;;;10398117;28;20117;-59
2022/03/26 21:21:32;;;;;;;3.78;3.13;;;17.50;57.90;;;;;;10372540;28;20049;-58
2022/03/26 21:26:32;;;;;;;4.70;3.03;;;17.50;57.90;;;;;;10386409;28;20107;-59
2022/03/26 21:31:33;;;;;;;3.83;2.78;;;17.50;57.80;;;;;;10416915;28;20120;-59
2022/03/26 21:36:34;;;;;;;3.92;2.78;;;17.50;57.90;;;;;;10381581;28;20561;-59
2022/03/26 21:41:34;;;;;;;4.07;3.25;;;17.50;57.80;;;;;;10375415;28;20042;-59
2022/03/26 21:46:36;;;;;;;4.15;3.15;;;17.40;57.80;;;;;;10383090;28;20062;-59
2022/03/26 21:51:37;;;;;;;3.47;2.60;;;17.40;57.80;;;;;;10375388;28;20092;-59
2022/03/26 21:56:38;;;;;;;4.53;3.15;;;17.40;57.90;;;;;;10377854;28;20112;-59
2022/03/26 22:01:39;;;;;;;4.88;3.25;;;17.40;57.80;;;;;;10397857;28;20116;-59
2022/03/26 22:06:39;;;;;;;4.70;2.80;;;17.40;57.70;;;;;;10374554;28;20045;-59
2022/03/26 22:11:40;;;;;;;4.20;3.20;;;17.40;57.80;;;;;;10395747;28;20062;-59
2022/03/26 22:16:41;;;;;;;3.67;2.92;;;17.40;57.70;;;;;;10414517;28;20103;-59
2022/03/26 22:21:43;;;;;;;3.33;2.78;;;17.40;57.70;;;;;;10388695;28;20037;-59
2022/03/26 22:26:44;;;;;;;3.35;2.63;;;17.40;57.70;;;;;;10373587;28;20026;-59
2022/03/26 22:31:45;;;;;;;3.75;2.78;;;17.40;57.80;;;;;;10373698;28;20435;-59
2022/03/26 22:36:46;;;;;;;3.15;2.45;;;17.40;57.70;;;;;;10373838;28;20508;-59
2022/03/26 22:41:47;;;;;;;7.30;3.05;;;17.40;57.70;;;;;;10373244;28;20034;-59
2022/03/26 22:46:48;;;;;;;3.70;2.90;;;17.40;57.70;;;;;;10373450;28;20556;-59
2022/03/26 22:51:49;;;;;;;3.20;2.25;;;17.40;57.70;;;;;;10373104;28;20030;-59
2022/03/26 22:56:49;;;;;;;2.95;2.40;;;17.40;57.70;;;;;;10376812;28;20040;-59
2022/03/26 23:02:02;;;;;;;3.25;2.83;;;17.40;57.70;;;;;;10392794;28;20080;-59
2022/03/26 23:07:03;;;;;;;3.17;2.28;;;17.40;57.70;;;;;;10372267;28;20088;-59
2022/03/26 23:12:04;;;;;;;4.18;2.50;;;17.40;57.80;;;;;;10367935;28;20038;-59
2022/03/26 23:17:05;;;;;;;3.80;2.33;;;17.40;57.70;;;;;;10389355;28;20033;-59
2022/03/26 23:22:05;;;;;;;3.33;2.40;;;17.40;57.70;;;;;;10412830;28;20458;-59
2022/03/26 23:27:09;;;;;;;2.38;1.98;;;17.30;57.70;;;;;;10381123;28;20112;-59
2022/03/26 23:32:10;;;;;;;3.10;2.30;;;17.40;57.80;;;;;;10412404;28;20071;-58
2022/03/26 23:37:10;;;;;;;3.05;2.05;;;17.30;57.70;;;;;;10372156;28;20042;-59
2022/03/26 23:42:11;;;;;;;3.78;2.50;;;17.30;57.70;;;;;;10367091;28;20038;-58
2022/03/26 23:47:12;;;;;;;4.10;2.40;;;17.30;57.70;;;;;;10371428;28;20091;-59
2022/03/26 23:52:13;;;;;;;3.15;2.42;;;17.30;57.70;;;;;;10373696;28;20033;-59
2022/03/26 23:57:14;;;;;;;3.20;2.60;;;17.30;57.80;;;;;;10370754;28;20559;-58
